sensor_id;sensor_type;location;lat;lon;timestamp;pressure;altitude;pressure_sealevel;temperature;humidity
11692;BME280;33659;42.672;23.354;2022-10-16T00:02:11;95001.69;;;13.02;66.14
11692;BME280;33659;42.672;23.354;2022-10-16T00:04:38;95008.13;;;13.05;66.09
11692;BME280;33659;42.672;23.354;2022-10-16T00:07:05;95008.03;;;13.01;65.97
11692;BME280;33659;42.672;23.354;2022-10-16T00:09:31;95008.56;;;12.83;66.50
11692;BME280;33659;42.672;23.354;2022-10-16T00:11:59;95015.63;;;12.70;67.04
11692;BME280;33659;42.672;23.354;2022-10-16T00:14:26;95011.53;;;12.60;67.14
11692;BME280;33659;42.672;23.354;2022-10-16T00:16:53;95014.06;;;12.57;67.51
11692;BME280;33659;42.672;23.354;2022-10-16T00:19:19;95022.16;;;12.64;67.52
11692;BME280;33659;42.672;23.354;2022-10-16T00:21:46;95012.88;;;12.66;67.36
11692;BME280;33659;42.672;23.354;2022-10-16T00:24:13;95022.06;;;12.72;67.19
11692;BME280;33659;42.672;23.354;2022-10-16T00:26:39;95020.53;;;12.71;67.02
11692;BME280;33659;42.672;23.354;2022-10-16T00:29:08;95021.44;;;12.76;66.99
11692;BME280;33659;42.672;23.354;2022-10-16T00:31:35;95023.53;;;12.82;66.71
11692;BME280;33659;42.672;23.354;2022-10-16T00:34:02;95027.00;;;12.86;66.51
11692;BME280;33659;42.672;23.354;2022-10-16T00:36:29;95031.06;;;12.84;66.47
11692;BME280;33659;42.672;23.354;2022-10-16T00:38:56;95022.28;;;12.80;66.28
11692;BME280;33659;42.672;23.354;2022-10-16T00:41:26;95028.72;;;12.70;66.56
11692;BME280;33659;42.672;23.354;2022-10-16T00:43:55;95032.28;;;12.53;67.10
11692;BME280;33659;42.672;23.354;2022-10-16T00:46:25;95024.53;;;12.57;67.00
11692;BME280;33659;42.672;23.354;2022-10-16T00:48:57;95029.13;;;12.60;67.01
11692;BME280;33659;42.672;23.354;2022-10-16T00:51:30;95011.75;;;12.55;66.83
11692;BME280;33659;42.672;23.354;2022-10-16T00:53:59;95019.78;;;12.71;66.65
11692;BME280;33659;42.672;23.354;2022-10-16T00:56:26;95020.63;;;12.63;66.85
11692;BME280;33659;42.672;23.354;2022-10-16T00:58:52;95021.59;;;12.58;66.98
11692;BME280;33659;42.672;23.354;2022-10-16T01:01:19;95026.50;;;12.60;67.03
11692;BME280;33659;42.672;23.354;2022-10-16T01:03:47;95023.25;;;12.63;66.85
11692;BME280;33659;42.672;23.354;2022-10-16T01:06:25;95031.97;;;12.67;66.54
11692;BME280;33659;42.672;23.354;2022-10-16T01:09:09;95037.94;;;12.55;66.64
11692;BME280;33659;42.672;23.354;2022-10-16T01:11:44;95033.59;;;12.26;67.58
11692;BME280;33659;42.672;23.354;2022-10-16T01:14:15;95036.75;;;11.90;68.52
11692;BME280;33659;42.672;23.354;2022-10-16T01:16:49;95034.47;;;11.59;69.35
11692;BME280;33659;42.672;23.354;2022-10-16T01:19:31;95020.91;;;11.36;70.44
11692;BME280;33659;42.672;23.354;2022-10-16T01:22:02;95030.53;;;11.15;71.39
11692;BME280;33659;42.672;23.354;2022-10-16T01:24:34;95023.63;;;11.10;71.56
11692;BME280;33659;42.672;23.354;2022-10-16T01:27:16;95018.88;;;11.03;71.89
11692;BME280;33659;42.672;23.354;2022-10-16T01:29:49;95013.50;;;11.00;72.69
11692;BME280;33659;42.672;23.354;2022-10-16T01:32:25;95019.09;;;10.90;72.95
11692;BME280;33659;42.672;23.354;2022-10-16T01:34:59;95018.81;;;10.82;73.29
11692;BME280;33659;42.672;23.354;2022-10-16T01:37:32;95016.81;;;10.79;73.69
11692;BME280;33659;42.672;23.354;2022-10-16T01:40:02;95002.06;;;10.75;73.39
11692;BME280;33659;42.672;23.354;2022-10-16T01:42:34;95018.47;;;10.93;72.96
11692;BME280;33659;42.672;23.354;2022-10-16T01:45:05;95013.84;;;10.98;72.96
11692;BME280;33659;42.672;23.354;2022-10-16T01:47:33;95018.72;;;11.08;72.25
11692;BME280;33659;42.672;23.354;2022-10-16T01:50:03;95026.06;;;11.15;72.54
11692;BME280;33659;42.672;23.354;2022-10-16T01:52:32;95031.84;;;11.29;71.60
11692;BME280;33659;42.672;23.354;2022-10-16T01:55:02;95032.41;;;11.44;70.68
11692;BME280;33659;42.672;23.354;2022-10-16T01:57:33;95032.81;;;11.54;70.60
11692;BME280;33659;42.672;23.354;2022-10-16T02:00:03;95034.28;;;11.64;70.10
11692;BME280;33659;42.672;23.354;2022-10-16T02:02:32;95032.84;;;11.75;69.48
11692;BME280;33659;42.672;23.354;2022-10-16T02:05:04;95033.91;;;11.83;69.20
11692;BME280;33659;42.672;23.354;2022-10-16T02:07:34;95038.19;;;11.87;69.02
11692;BME280;33659;42.672;23.354;2022-10-16T02:10:01;95042.00;;;11.90;68.76
11692;BME280;33659;42.672;23.354;2022-10-16T02:12:30;95038.50;;;11.86;68.91
11692;BME280;33659;42.672;23.354;2022-10-16T02:14:59;95046.38;;;11.77;69.21
11692;BME280;33659;42.672;23.354;2022-10-16T02:17:25;95047.00;;;11.74;69.35
11692;BME280;33659;42.672;23.354;2022-10-16T02:19:54;95048.59;;;11.66;69.26
11692;BME280;33659;42.672;23.354;2022-10-16T02:22:26;95055.59;;;11.54;69.88
11692;BME280;33659;42.672;23.354;2022-10-16T02:24:57;95061.91;;;11.53;69.93
11692;BME280;33659;42.672;23.354;2022-10-16T02:27:30;95055.75;;;11.49;69.18
11692;BME280;33659;42.672;23.354;2022-10-16T02:30:04;95053.47;;;11.47;68.97
11692;BME280;33659;42.672;23.354;2022-10-16T02:32:35;95059.63;;;11.43;69.09
11692;BME280;33659;42.672;23.354;2022-10-16T02:35:04;95061.16;;;11.44;68.66
11692;BME280;33659;42.672;23.354;2022-10-16T02:37:32;95061.59;;;11.46;68.83
11692;BME280;33659;42.672;23.354;2022-10-16T02:40:00;95053.75;;;11.54;68.21
11692;BME280;33659;42.672;23.354;2022-10-16T02:42:28;95054.69;;;11.50;68.53
11692;BME280;33659;42.672;23.354;2022-10-16T02:44:56;95065.72;;;11.55;68.20
11692;BME280;33659;42.672;23.354;2022-10-16T02:47:24;95064.53;;;11.53;68.52
11692;BME280;33659;42.672;23.354;2022-10-16T02:49:51;95057.44;;;11.53;68.13
11692;BME280;33659;42.672;23.354;2022-10-16T02:52:17;95065.56;;;11.60;68.10
11692;BME280;33659;42.672;23.354;2022-10-16T02:54:44;95072.63;;;11.60;67.89
11692;BME280;33659;42.672;23.354;2022-10-16T02:57:11;95068.28;;;11.64;67.76
11692;BME280;33659;42.672;23.354;2022-10-16T02:59:38;95075.69;;;11.62;68.14
11692;BME280;33659;42.672;23.354;2022-10-16T03:02:04;95074.34;;;11.56;68.18
11692;BME280;33659;42.672;23.354;2022-10-16T03:04:33;95078.38;;;11.53;68.17
11692;BME280;33659;42.672;23.354;2022-10-16T03:06:59;95078.66;;;11.52;68.07
11692;BME280;33659;42.672;23.354;2022-10-16T03:09:26;95074.13;;;11.40;68.24
11692;BME280;33659;42.672;23.354;2022-10-16T03:11:53;95078.16;;;11.29;68.36
11692;BME280;33659;42.672;23.354;2022-10-16T03:14:20;95073.41;;;11.22;68.83
11692;BME280;33659;42.672;23.354;2022-10-16T03:16:46;95083.88;;;11.22;68.49
11692;BME280;33659;42.672;23.354;2022-10-16T03:19:13;95086.00;;;11.20;68.66
11692;BME280;33659;42.672;23.354;2022-10-16T03:21:41;95082.81;;;11.15;69.06
11692;BME280;33659;42.672;23.354;2022-10-16T03:24:08;95089.09;;;11.22;68.38
11692;BME280;33659;42.672;23.354;2022-10-16T03:26:35;95089.09;;;11.13;67.97
11692;BME280;33659;42.672;23.354;2022-10-16T03:29:02;95086.25;;;10.89;67.95
11692;BME280;33659;42.672;23.354;2022-10-16T03:31:29;95082.13;;;10.62;68.68
11692;BME280;33659;42.672;23.354;2022-10-16T03:33:56;95089.06;;;10.41;69.79
11692;BME280;33659;42.672;23.354;2022-10-16T03:36:23;95085.97;;;10.21;70.82
11692;BME280;33659;42.672;23.354;2022-10-16T03:38:51;95090.06;;;9.96;71.67
11692;BME280;33659;42.672;23.354;2022-10-16T03:41:17;95100.59;;;9.65;73.48
11692;BME280;33659;42.672;23.354;2022-10-16T03:43:44;95095.97;;;9.54;74.31
11692;BME280;33659;42.672;23.354;2022-10-16T03:46:11;95096.53;;;9.42;74.74
11692;BME280;33659;42.672;23.354;2022-10-16T03:48:38;95092.63;;;9.22;75.45
11692;BME280;33659;42.672;23.354;2022-10-16T03:51:05;95084.41;;;9.06;75.99
11692;BME280;33659;42.672;23.354;2022-10-16T03:53:32;95087.28;;;8.96;77.13
11692;BME280;33659;42.672;23.354;2022-10-16T03:56:00;95079.91;;;8.89;77.82
11692;BME280;33659;42.672;23.354;2022-10-16T03:58:27;95078.81;;;8.90;77.31
11692;BME280;33659;42.672;23.354;2022-10-16T04:00:54;95081.25;;;8.87;77.25
11692;BME280;33659;42.672;23.354;2022-10-16T04:03:21;95076.16;;;8.82;77.67
11692;BME280;33659;42.672;23.354;2022-10-16T04:05:48;95072.50;;;8.83;77.59
11692;BME280;33659;42.672;23.354;2022-10-16T04:08:15;95073.44;;;8.87;77.91
11692;BME280;33659;42.672;23.354;2022-10-16T04:10:42;95082.66;;;8.93;77.58
11692;BME280;33659;42.672;23.354;2022-10-16T04:13:10;95083.63;;;8.97;77.90
11692;BME280;33659;42.672;23.354;2022-10-16T04:15:37;95083.84;;;9.09;77.53
11692;BME280;33659;42.672;23.354;2022-10-16T04:18:05;95088.63;;;9.25;77.37
11692;BME280;33659;42.672;23.354;2022-10-16T04:20:32;95082.88;;;9.45;76.31
11692;BME280;33659;42.672;23.354;2022-10-16T04:22:58;95082.69;;;9.72;75.24
11692;BME280;33659;42.672;23.354;2022-10-16T04:25:25;95090.84;;;9.97;74.54
11692;BME280;33659;42.672;23.354;2022-10-16T04:27:52;95087.50;;;10.14;73.04
11692;BME280;33659;42.672;23.354;2022-10-16T04:30:21;95092.00;;;10.30;72.43
11692;BME280;33659;42.672;23.354;2022-10-16T04:32:48;95092.75;;;10.40;71.84
11692;BME280;33659;42.672;23.354;2022-10-16T04:35:15;95089.53;;;10.43;71.58
11692;BME280;33659;42.672;23.354;2022-10-16T04:37:42;95100.59;;;10.57;70.73
11692;BME280;33659;42.672;23.354;2022-10-16T04:40:09;95092.75;;;10.66;70.05
11692;BME280;33659;42.672;23.354;2022-10-16T04:42:36;95098.13;;;10.69;70.04
11692;BME280;33659;42.672;23.354;2022-10-16T04:45:04;95105.78;;;10.74;69.70
11692;BME280;33659;42.672;23.354;2022-10-16T04:47:32;95107.16;;;10.80;69.71
11692;BME280;33659;42.672;23.354;2022-10-16T04:49:59;95110.69;;;10.84;69.41
11692;BME280;33659;42.672;23.354;2022-10-16T04:52:26;95107.00;;;10.85;69.42
11692;BME280;33659;42.672;23.354;2022-10-16T04:54:53;95119.91;;;10.91;69.45
11692;BME280;33659;42.672;23.354;2022-10-16T04:57:21;95119.44;;;10.97;68.68
11692;BME280;33659;42.672;23.354;2022-10-16T04:59:48;95113.59;;;11.00;68.54
11692;BME280;33659;42.672;23.354;2022-10-16T05:02:15;95125.88;;;11.08;68.37
11692;BME280;33659;42.672;23.354;2022-10-16T05:04:43;95127.84;;;11.20;67.88
11692;BME280;33659;42.672;23.354;2022-10-16T05:07:10;95131.81;;;11.26;67.94
11692;BME280;33659;42.672;23.354;2022-10-16T05:09:36;95133.50;;;11.31;67.44
11692;BME280;33659;42.672;23.354;2022-10-16T05:12:03;95128.84;;;11.45;67.11
11692;BME280;33659;42.672;23.354;2022-10-16T05:14:30;95135.75;;;11.50;66.74
11692;BME280;33659;42.672;23.354;2022-10-16T05:16:56;95131.75;;;11.52;66.39
11692;BME280;33659;42.672;23.354;2022-10-16T05:19:23;95140.53;;;11.48;66.68
11692;BME280;33659;42.672;23.354;2022-10-16T05:21:51;95139.91;;;11.51;66.55
11692;BME280;33659;42.672;23.354;2022-10-16T05:24:18;95144.53;;;11.54;66.60
11692;BME280;33659;42.672;23.354;2022-10-16T05:26:45;95146.66;;;11.52;66.67
11692;BME280;33659;42.672;23.354;2022-10-16T05:29:11;95145.94;;;11.43;66.56
11692;BME280;33659;42.672;23.354;2022-10-16T05:31:38;95143.06;;;11.18;67.51
11692;BME280;33659;42.672;23.354;2022-10-16T05:34:05;95139.28;;;10.98;68.04
11692;BME280;33659;42.672;23.354;2022-10-16T05:36:31;95148.22;;;10.89;68.48
11692;BME280;33659;42.672;23.354;2022-10-16T05:39:00;95144.22;;;10.82;68.65
11692;BME280;33659;42.672;23.354;2022-10-16T05:41:26;95146.06;;;10.73;68.96
11692;BME280;33659;42.672;23.354;2022-10-16T05:43:53;95146.66;;;10.79;68.96
11692;BME280;33659;42.672;23.354;2022-10-16T05:46:20;95153.88;;;10.91;68.74
11692;BME280;33659;42.672;23.354;2022-10-16T05:48:47;95147.28;;;11.02;68.48
11692;BME280;33659;42.672;23.354;2022-10-16T05:51:14;95154.94;;;11.16;68.07
11692;BME280;33659;42.672;23.354;2022-10-16T05:53:41;95157.06;;;11.22;68.07
11692;BME280;33659;42.672;23.354;2022-10-16T05:56:11;95159.97;;;11.29;67.88
11692;BME280;33659;42.672;23.354;2022-10-16T05:58:38;95165.94;;;11.38;67.54
11692;BME280;33659;42.672;23.354;2022-10-16T06:01:09;95173.47;;;11.49;66.85
11692;BME280;33659;42.672;23.354;2022-10-16T06:03:36;95175.72;;;11.59;66.25
11692;BME280;33659;42.672;23.354;2022-10-16T06:06:14;95185.56;;;11.62;66.04
11692;BME280;33659;42.672;23.354;2022-10-16T06:08:42;95182.19;;;11.61;65.98
11692;BME280;33659;42.672;23.354;2022-10-16T06:11:13;95185.84;;;11.69;65.98
11692;BME280;33659;42.672;23.354;2022-10-16T06:13:40;95195.50;;;11.77;65.53
11692;BME280;33659;42.672;23.354;2022-10-16T06:16:08;95184.91;;;11.82;65.40
11692;BME280;33659;42.672;23.354;2022-10-16T06:18:35;95193.03;;;11.89;65.14
11692;BME280;33659;42.672;23.354;2022-10-16T06:21:08;95194.56;;;11.99;65.14
11692;BME280;33659;42.672;23.354;2022-10-16T06:23:36;95197.59;;;12.01;64.61
11692;BME280;33659;42.672;23.354;2022-10-16T06:26:06;95199.13;;;12.02;64.39
11692;BME280;33659;42.672;23.354;2022-10-16T06:28:35;95201.94;;;11.97;64.87
11692;BME280;33659;42.672;23.354;2022-10-16T06:31:03;95213.16;;;11.98;65.04
11692;BME280;33659;42.672;23.354;2022-10-16T06:33:30;95203.88;;;12.09;64.75
11692;BME280;33659;42.672;23.354;2022-10-16T06:36:00;95205.69;;;12.17;64.63
11692;BME280;33659;42.672;23.354;2022-10-16T06:38:27;95208.88;;;12.31;64.32
11692;BME280;33659;42.672;23.354;2022-10-16T06:40:54;95198.38;;;12.31;64.21
11692;BME280;33659;42.672;23.354;2022-10-16T06:43:21;95209.94;;;12.30;64.49
11692;BME280;33659;42.672;23.354;2022-10-16T06:45:51;95216.06;;;12.34;64.50
11692;BME280;33659;42.672;23.354;2022-10-16T06:48:19;95211.09;;;12.41;64.72
11692;BME280;33659;42.672;23.354;2022-10-16T06:50:55;95224.19;;;12.41;63.98
11692;BME280;33659;42.672;23.354;2022-10-16T06:53:21;95224.78;;;12.47;64.13
11692;BME280;33659;42.672;23.354;2022-10-16T06:55:48;95234.50;;;12.46;64.18
11692;BME280;33659;42.672;23.354;2022-10-16T06:58:15;95229.53;;;12.54;64.01
11692;BME280;33659;42.672;23.354;2022-10-16T07:00:41;95240.75;;;12.63;63.58
11692;BME280;33659;42.672;23.354;2022-10-16T07:03:09;95238.38;;;12.70;63.71
11692;BME280;33659;42.672;23.354;2022-10-16T07:05:37;95247.09;;;12.83;63.20
11692;BME280;33659;42.672;23.354;2022-10-16T07:08:04;95238.56;;;12.86;63.40
11692;BME280;33659;42.672;23.354;2022-10-16T07:10:31;95238.81;;;12.93;63.18
11692;BME280;33659;42.672;23.354;2022-10-16T07:12:58;95238.31;;;12.99;62.70
11692;BME280;33659;42.672;23.354;2022-10-16T07:15:25;95241.50;;;13.05;62.80
11692;BME280;33659;42.672;23.354;2022-10-16T07:17:52;95244.69;;;13.11;62.44
11692;BME280;33659;42.672;23.354;2022-10-16T07:20:20;95239.59;;;13.14;62.65
11692;BME280;33659;42.672;23.354;2022-10-16T07:22:47;95250.78;;;13.23;62.55
11692;BME280;33659;42.672;23.354;2022-10-16T07:25:14;95250.13;;;13.26;61.83
11692;BME280;33659;42.672;23.354;2022-10-16T07:27:41;95247.84;;;13.25;62.24
11692;BME280;33659;42.672;23.354;2022-10-16T07:30:08;95253.75;;;13.22;62.33
11692;BME280;33659;42.672;23.354;2022-10-16T07:32:35;95246.47;;;13.27;62.13
11692;BME280;33659;42.672;23.354;2022-10-16T07:35:02;95243.50;;;13.29;62.11
11692;BME280;33659;42.672;23.354;2022-10-16T07:37:30;95245.94;;;13.34;61.98
11692;BME280;33659;42.672;23.354;2022-10-16T07:39:56;95248.34;;;13.39;61.55
11692;BME280;33659;42.672;23.354;2022-10-16T07:42:23;95249.22;;;13.43;61.71
11692;BME280;33659;42.672;23.354;2022-10-16T07:44:50;95252.50;;;13.40;62.03
11692;BME280;33659;42.672;23.354;2022-10-16T07:47:17;95251.22;;;13.46;61.95
11692;BME280;33659;42.672;23.354;2022-10-16T07:49:44;95250.13;;;13.47;61.55
11692;BME280;33659;42.672;23.354;2022-10-16T07:52:10;95250.31;;;13.42;62.37
11692;BME280;33659;42.672;23.354;2022-10-16T07:54:38;95257.06;;;13.31;62.87
11692;BME280;33659;42.672;23.354;2022-10-16T07:57:05;95252.66;;;13.23;62.72
11692;BME280;33659;42.672;23.354;2022-10-16T07:59:32;95260.97;;;13.25;63.34
11692;BME280;33659;42.672;23.354;2022-10-16T08:01:58;95263.06;;;13.32;63.47
11692;BME280;33659;42.672;23.354;2022-10-16T08:04:25;95262.19;;;13.27;62.94
11692;BME280;33659;42.672;23.354;2022-10-16T08:06:52;95259.44;;;13.24;63.46
11692;BME280;33659;42.672;23.354;2022-10-16T08:09:19;95259.56;;;13.27;63.39
11692;BME280;33659;42.672;23.354;2022-10-16T08:11:47;95257.72;;;13.28;63.15
11692;BME280;33659;42.672;23.354;2022-10-16T08:14:14;95255.44;;;13.18;63.33
11692;BME280;33659;42.672;23.354;2022-10-16T08:16:41;95264.25;;;13.13;63.61
11692;BME280;33659;42.672;23.354;2022-10-16T08:19:07;95257.19;;;13.14;63.86
11692;BME280;33659;42.672;23.354;2022-10-16T08:21:34;95257.13;;;13.22;63.62
11692;BME280;33659;42.672;23.354;2022-10-16T08:24:00;95251.75;;;13.40;62.88
11692;BME280;33659;42.672;23.354;2022-10-16T08:26:30;95245.00;;;13.51;62.40
11692;BME280;33659;42.672;23.354;2022-10-16T08:28:58;95253.66;;;13.64;61.52
11692;BME280;33659;42.672;23.354;2022-10-16T08:31:25;95255.22;;;13.77;61.06
11692;BME280;33659;42.672;23.354;2022-10-16T08:33:57;95251.75;;;13.85;61.31
11692;BME280;33659;42.672;23.354;2022-10-16T08:36:24;95252.09;;;13.96;60.89
11692;BME280;33659;42.672;23.354;2022-10-16T08:38:51;95257.56;;;14.03;60.09
11692;BME280;33659;42.672;23.354;2022-10-16T08:41:45;95249.69;;;14.03;59.85
11692;BME280;33659;42.672;23.354;2022-10-16T08:44:32;95257.91;;;14.14;59.43
11692;BME280;33659;42.672;23.354;2022-10-16T08:47:12;95253.97;;;14.20;59.46
11692;BME280;33659;42.672;23.354;2022-10-16T08:49:41;95248.31;;;14.30;58.73
11692;BME280;33659;42.672;23.354;2022-10-16T08:52:12;95258.03;;;14.42;57.23
11692;BME280;33659;42.672;23.354;2022-10-16T08:54:42;95261.22;;;14.47;56.58
11692;BME280;33659;42.672;23.354;2022-10-16T08:57:13;95253.47;;;14.51;56.75
11692;BME280;33659;42.672;23.354;2022-10-16T08:59:42;95260.81;;;14.57;56.80
11692;BME280;33659;42.672;23.354;2022-10-16T09:02:23;95263.72;;;14.68;53.61
11692;BME280;33659;42.672;23.354;2022-10-16T09:05:16;95263.63;;;14.77;53.17
11692;BME280;33659;42.672;23.354;2022-10-16T09:07:51;95262.19;;;14.79;53.66
11692;BME280;33659;42.672;23.354;2022-10-16T09:10:33;95258.16;;;14.82;52.67
11692;BME280;33659;42.672;23.354;2022-10-16T09:13:13;95256.81;;;14.88;52.19
11692;BME280;33659;42.672;23.354;2022-10-16T09:15:52;95256.66;;;15.09;52.38
11692;BME280;33659;42.672;23.354;2022-10-16T09:18:26;95259.53;;;15.32;51.91
11692;BME280;33659;42.672;23.354;2022-10-16T09:20:59;95252.47;;;15.48;51.08
11692;BME280;33659;42.672;23.354;2022-10-16T09:23:29;95250.31;;;15.66;50.33
11692;BME280;33659;42.672;23.354;2022-10-16T09:25:58;95255.78;;;15.89;49.85
11692;BME280;33659;42.672;23.354;2022-10-16T09:28:25;95247.72;;;15.97;49.64
11692;BME280;33659;42.672;23.354;2022-10-16T09:30:53;95251.88;;;16.14;49.24
11692;BME280;33659;42.672;23.354;2022-10-16T09:33:22;95245.56;;;16.35;48.82
11692;BME280;33659;42.672;23.354;2022-10-16T09:35:51;95253.22;;;16.40;48.28
11692;BME280;33659;42.672;23.354;2022-10-16T09:38:24;95247.50;;;16.53;47.99
11692;BME280;33659;42.672;23.354;2022-10-16T09:40:52;95250.78;;;16.66;47.44
11692;BME280;33659;42.672;23.354;2022-10-16T09:43:22;95254.47;;;16.77;47.29
11692;BME280;33659;42.672;23.354;2022-10-16T09:46:02;95250.69;;;16.94;47.45
11692;BME280;33659;42.672;23.354;2022-10-16T09:48:36;95240.59;;;17.19;45.97
11692;BME280;33659;42.672;23.354;2022-10-16T09:51:05;95238.28;;;17.33;46.23
11692;BME280;33659;42.672;23.354;2022-10-16T09:53:41;95229.22;;;17.54;45.28
11692;BME280;33659;42.672;23.354;2022-10-16T09:56:10;95236.84;;;17.59;43.74
11692;BME280;33659;42.672;23.354;2022-10-16T09:58:42;95235.13;;;17.47;43.29
11692;BME280;33659;42.672;23.354;2022-10-16T10:01:13;95232.66;;;17.58;43.94
11692;BME280;33659;42.672;23.354;2022-10-16T10:03:41;95236.41;;;17.76;43.87
11692;BME280;33659;42.672;23.354;2022-10-16T10:06:18;95228.31;;;17.89;43.08
11692;BME280;33659;42.672;23.354;2022-10-16T10:08:58;95219.69;;;18.14;42.83
11692;BME280;33659;42.672;23.354;2022-10-16T10:11:39;95224.94;;;18.37;42.74
11692;BME280;33659;42.672;23.354;2022-10-16T10:14:15;95223.16;;;18.45;40.96
11692;BME280;33659;42.672;23.354;2022-10-16T10:16:44;95208.13;;;18.23;40.96
11692;BME280;33659;42.672;23.354;2022-10-16T10:19:15;95221.56;;;18.40;41.90
11692;BME280;33659;42.672;23.354;2022-10-16T10:21:41;95225.72;;;18.64;41.14
11692;BME280;33659;42.672;23.354;2022-10-16T10:24:11;95224.56;;;18.92;38.64
11692;BME280;33659;42.672;23.354;2022-10-16T10:26:38;95212.00;;;19.15;39.44
11692;BME280;33659;42.672;23.354;2022-10-16T10:29:15;95211.97;;;19.45;39.57
11692;BME280;33659;42.672;23.354;2022-10-16T10:31:51;95210.94;;;19.57;38.54
11692;BME280;33659;42.672;23.354;2022-10-16T10:34:36;95216.22;;;19.54;38.50
11692;BME280;33659;42.672;23.354;2022-10-16T10:37:14;95206.84;;;19.63;38.29
11692;BME280;33659;42.672;23.354;2022-10-16T10:39:55;95198.19;;;19.66;37.70
11692;BME280;33659;42.672;23.354;2022-10-16T10:42:27;95206.97;;;19.74;38.01
11692;BME280;33659;42.672;23.354;2022-10-16T10:45:04;95200.72;;;19.96;40.62
11692;BME280;33659;42.672;23.354;2022-10-16T10:47:47;95192.66;;;20.30;40.69
11692;BME280;33659;42.672;23.354;2022-10-16T10:50:23;95185.97;;;20.50;37.06
11692;BME280;33659;42.672;23.354;2022-10-16T10:52:59;95190.22;;;20.62;36.43
11692;BME280;33659;42.672;23.354;2022-10-16T10:55:37;95188.47;;;20.88;38.45
11692;BME280;33659;42.672;23.354;2022-10-16T11:01:14;95183.28;;;21.20;36.51
11692;BME280;33659;42.672;23.354;2022-10-16T11:04:03;95176.13;;;21.38;37.62
11692;BME280;33659;42.672;23.354;2022-10-16T11:06:40;95177.66;;;21.43;35.36
11692;BME280;33659;42.672;23.354;2022-10-16T11:09:12;95168.56;;;21.54;34.08
11692;BME280;33659;42.672;23.354;2022-10-16T11:11:44;95173.13;;;21.68;36.35
11692;BME280;33659;42.672;23.354;2022-10-16T11:14:15;95170.50;;;21.72;34.26
11692;BME280;33659;42.672;23.354;2022-10-16T11:16:48;95166.63;;;21.44;31.79
11692;BME280;33659;42.672;23.354;2022-10-16T11:19:29;95171.97;;;21.41;32.11
11692;BME280;33659;42.672;23.354;2022-10-16T11:22:02;95168.19;;;21.52;33.41
11692;BME280;33659;42.672;23.354;2022-10-16T11:24:39;95162.53;;;21.79;34.63
11692;BME280;33659;42.672;23.354;2022-10-16T11:27:09;95161.75;;;21.85;34.26
11692;BME280;33659;42.672;23.354;2022-10-16T11:29:46;95157.59;;;21.84;34.32
11692;BME280;33659;42.672;23.354;2022-10-16T11:32:22;95159.84;;;21.86;34.24
11692;BME280;33659;42.672;23.354;2022-10-16T11:34:53;95157.59;;;21.84;35.01
11692;BME280;33659;42.672;23.354;2022-10-16T11:37:28;95164.78;;;21.87;34.36
11692;BME280;33659;42.672;23.354;2022-10-16T11:40:05;95168.97;;;22.06;35.50
11692;BME280;33659;42.672;23.354;2022-10-16T11:42:40;95161.03;;;22.17;34.84
11692;BME280;33659;42.672;23.354;2022-10-16T11:45:21;95157.19;;;22.25;34.51
11692;BME280;33659;42.672;23.354;2022-10-16T11:47:54;95164.78;;;22.44;34.24
11692;BME280;33659;42.672;23.354;2022-10-16T11:50:29;95155.63;;;22.56;33.81
11692;BME280;33659;42.672;23.354;2022-10-16T11:53:01;95163.19;;;22.68;33.83
11692;BME280;33659;42.672;23.354;2022-10-16T11:55:34;95170.41;;;22.75;34.50
11692;BME280;33659;42.672;23.354;2022-10-16T11:58:05;95165.81;;;22.90;33.08
11692;BME280;33659;42.672;23.354;2022-10-16T12:00:39;95168.06;;;22.95;33.55
11692;BME280;33659;42.672;23.354;2022-10-16T12:03:14;95159.69;;;22.96;32.31
11692;BME280;33659;42.672;23.354;2022-10-16T12:05:57;95159.69;;;22.96;33.06
11692;BME280;33659;42.672;23.354;2022-10-16T12:08:25;95165.06;;;22.82;32.62
11692;BME280;33659;42.672;23.354;2022-10-16T12:10:53;95163.50;;;22.92;33.75
11692;BME280;33659;42.672;23.354;2022-10-16T12:13:31;95159.59;;;23.18;33.71
11692;BME280;33659;42.672;23.354;2022-10-16T12:16:20;95159.50;;;23.36;33.06
11692;BME280;33659;42.672;23.354;2022-10-16T12:18:47;95160.97;;;23.47;31.85
11692;BME280;33659;42.672;23.354;2022-10-16T12:21:17;95158.78;;;23.32;31.83
11692;BME280;33659;42.672;23.354;2022-10-16T12:23:49;95160.69;;;23.24;31.93
11692;BME280;33659;42.672;23.354;2022-10-16T12:26:25;95158.06;;;23.17;32.05
11692;BME280;33659;42.672;23.354;2022-10-16T12:28:52;95157.38;;;22.98;31.79
11692;BME280;33659;42.672;23.354;2022-10-16T12:31:19;95155.13;;;23.01;31.87
11692;BME280;33659;42.672;23.354;2022-10-16T12:33:57;95154.78;;;22.88;31.90
11692;BME280;33659;42.672;23.354;2022-10-16T12:36:30;95167.72;;;22.93;32.31
11692;BME280;33659;42.672;23.354;2022-10-16T12:38:58;95161.56;;;23.07;33.49
11692;BME280;33659;42.672;23.354;2022-10-16T12:41:28;95159.22;;;23.19;31.94
11692;BME280;33659;42.672;23.354;2022-10-16T12:43:55;95156.59;;;23.09;31.86
11692;BME280;33659;42.672;23.354;2022-10-16T12:46:34;95149.03;;;22.86;32.95
11692;BME280;33659;42.672;23.354;2022-10-16T12:49:17;95161.22;;;22.97;32.73
11692;BME280;33659;42.672;23.354;2022-10-16T12:51:47;95162.31;;;23.07;32.76
11692;BME280;33659;42.672;23.354;2022-10-16T12:54:16;95168.59;;;23.42;33.31
11692;BME280;33659;42.672;23.354;2022-10-16T12:56:51;95167.16;;;23.89;31.34
11692;BME280;33659;42.672;23.354;2022-10-16T12:59:31;95165.59;;;23.95;30.87
11692;BME280;33659;42.672;23.354;2022-10-16T13:02:16;95168.78;;;24.24;30.42
11692;BME280;33659;42.672;23.354;2022-10-16T13:04:52;95162.91;;;24.81;30.61
11692;BME280;33659;42.672;23.354;2022-10-16T13:07:38;95170.47;;;25.21;29.39
11692;BME280;33659;42.672;23.354;2022-10-16T13:10:15;95170.28;;;25.62;29.60